Tropical Cyclones
[Index]
Main Index Home Page Stock Weather Photos Extreme Storms Discussion Storm News and Storm Chasing Reports Tropical Cyclones / Hurricanes / Typhoons Weather Data and Links Wild Fires / Bushfires Weather Observation Techniques Weather Picture Catalogue Tornado Pictures and Reports Stock Video Footage and DVDs for sale
Season 2001-2002 Tropical Cyclone BONNIE Track Map
Season 2001-2002 Summaries: [BoM-AU] [JTWC-AU] [JTWC-SIO] [JTWC-SPAC] [JTWC-SH]
<<- Previous TC | BoM 2001-2002 Season | Next TC ->>

click for intensity scale information  Lat/long Grid: Show Hide

 Date Labels: Show Hide

Bureau of Meteorology Tropical Cyclone Data

Name: BONNIE
Number: 858 / 200102_08

07 Apr 2002 18:00 UTC to 15 Apr 2002 00:00 UTC

    date/time    lat    long    hPa   cat  kts
2002-04-07 18    7.2   133.2   1008         10          
2002-04-08 00    7.0   132.2   1008         15          
2002-04-08 06    6.8   131.5   1008         20          
2002-04-08 12    6.7   130.7   1005         25          
2002-04-08 18    6.7   130.0   1001         25          
2002-04-09 00    6.8   129.2    997         30          
2002-04-09 06    7.2   128.7    997         30          
2002-04-09 12    8.0   128.5    996         30          
2002-04-09 15    8.6   128.3    996         30          
2002-04-09 18    8.7   127.8    996         35          
2002-04-09 21    9.1   127.4    996         40          
2002-04-10 00    9.3   126.8    992    1    40          
2002-04-10 03    9.5   126.4    992    1    40          
2002-04-10 06    9.7   125.9    992    1    40          
2002-04-10 09    9.8   125.3    992    1    40          
2002-04-10 12   10.0   124.9    995    1    35          
2002-04-10 15   10.2   124.1    995    1    35          
2002-04-10 18   10.2   123.4    992    1    40          
2002-04-10 21   10.2   122.7    990    1    40          
2002-04-11 00   10.1   122.1    990    1    40          
2002-04-11 03   10.0   121.5    990    1    40          
2002-04-11 06   10.0   120.8    993    1    35          
2002-04-11 09   10.0   120.0    997         30          
2002-04-11 12   10.0   119.4    995    1    35          
2002-04-11 18   10.1   118.1    991    1    45          
2002-04-12 00   10.2   116.8    987    1    50          
2002-04-12 03   10.2   116.2    985    2    50          
2002-04-12 06   10.2   115.6    985    2    50          
2002-04-12 09   10.5   115.0    985    2    50          
2002-04-12 12   10.6   114.5    985    2    45          
2002-04-12 15   10.8   114.0    988    1    40          
2002-04-12 18   11.0   113.3    990    1    40          
2002-04-12 21   11.2   112.5    992    1    40          
2002-04-13 00   11.5   111.8    995    1    35          
2002-04-13 03   11.7   111.1    995    1    35          
2002-04-13 06   11.9   110.6    995    1    35          
2002-04-13 09   11.9   110.0    995    1    35          
2002-04-13 12   12.0   109.5    995    1    35          
2002-04-13 15   12.0   109.0    995    1    35          
2002-04-13 18   12.2   108.3    995    1    35          
2002-04-13 21   12.4   107.8    995    1    35          
2002-04-14 00   12.6   107.3    992    1    40          
2002-04-14 03   12.9   106.7    992    1    40          
2002-04-14 06   13.5   106.1    995    1    35          
2002-04-14 09   13.9   105.5    998         30          
2002-04-14 12   14.4   104.7   1000         25          
2002-04-14 15   14.9   103.7   1002         25          
2002-04-14 18   15.4   102.5   1002         25          
2002-04-15 00   15.9   101.3   1004         20          
Winds are 10-min average.

Tropical cyclone tracks developed by Michael Bath using data from the Bureau of Meteorology and Google Maps.


[Australian Severe Weather index] [Copyright Notice] [Email Contacts] [Search This Site] [Privacy Policy]
Document: tropical_cyclone_bonnie.htm Updated: 29 June 2017